POGODA: Poland

Lotnisko: Szczecin-Goleniow

METAR KOD: EPSC


METAR: EPSC 181330Z 10007KT 040V140 CAVOK 23/11 Q1016


BLOK
Pogoda METAR
181330Z
Dzien: 18, Godzina: 13:30 UTC.
10007KT
Wiatr z kierunku 100, o predkosci 13 km/h
040V140
Wiatr zmienny pomiedzy 040 i 140
CAVOK
Widzialnosc pow. 10 km, brak chmur pon. 1500 m., brak CB, brak opadow, burz i innych
23/11
Temperatura: powietrze 23°C, punkt rosy 11°C . Wilgotnosc wzgledna 48 %
Q1016
Cisnienie: 1016 hPa

Pogoda na innym lotnisku

Pogoda Gdansk-Rebiechowo WEATHER Poland  
Pogoda Katowice WEATHER Poland  
Pogoda Krakow WEATHER Poland  
Pogoda Poznan WEATHER Poland  
Pogoda Rzeszow-Jasionka WEATHER Poland  
Pogoda Szczecin WEATHER Poland  
Pogoda Warszawa-Okecie WEATHER Poland  
Pogoda Wroclaw Ii WEATHER Poland  

Pogoda w inny kraju

Strona startowa

(C) by GREGOR 2007
Ogłoszenia Towarzyskie